createdAt,value
2019-04-25T00:02:21.306Z,13.90
2019-04-25T00:04:51.537Z,13.90
2019-04-25T00:07:22.513Z,13.80
2019-04-25T00:09:55.924Z,13.80
2019-04-25T00:12:25.815Z,13.80
2019-04-25T00:14:55.106Z,13.70
2019-04-25T00:17:25.330Z,13.70
2019-04-25T00:19:54.621Z,13.70
2019-04-25T00:22:42.869Z,13.70
2019-04-25T00:25:32.354Z,13.70
2019-04-25T00:28:01.860Z,13.70
2019-04-25T00:30:32.893Z,13.70
2019-04-25T00:33:02.228Z,13.60
2019-04-25T00:35:31.617Z,13.60
2019-04-25T00:38:02.360Z,13.60
2019-04-25T00:40:31.980Z,13.60
2019-04-25T00:43:01.660Z,13.60
2019-04-25T00:45:31.687Z,13.60
2019-04-25T00:48:02.429Z,13.50
2019-04-25T00:50:32.575Z,13.50
2019-04-25T00:53:02.986Z,13.50
2019-04-25T00:55:32.350Z,13.50
2019-04-25T00:58:31.424Z,13.50
2019-04-25T01:01:28.524Z,13.50
2019-04-25T01:03:57.952Z,13.40
2019-04-25T01:06:27.243Z,13.40
2019-04-25T01:08:56.526Z,13.40
2019-04-25T01:11:26.260Z,13.50
2019-04-25T01:13:55.531Z,13.40
2019-04-25T01:16:24.882Z,13.40
2019-04-25T01:18:54.804Z,13.40
2019-04-25T01:21:25.326Z,13.40
2019-04-25T01:23:55.697Z,13.40
2019-04-25T01:26:25.328Z,13.40
2019-04-25T01:28:54.986Z,13.40
2019-04-25T01:31:26.140Z,13.40
2019-04-25T01:33:55.647Z,13.40
2019-04-25T01:36:50.703Z,13.40
2019-04-25T01:39:37.921Z,13.40
2019-04-25T01:42:24.971Z,13.40
2019-04-25T01:44:56.908Z,13.40
2019-04-25T01:47:27.083Z,13.30
2019-04-25T01:49:56.689Z,13.30
2019-04-25T01:52:26.415Z,13.30
2019-04-25T01:54:56.224Z,13.30
2019-04-25T01:57:26.713Z,13.20
2019-04-25T01:59:56.296Z,13.20
2019-04-25T02:02:27.427Z,13.20
2019-04-25T02:04:57.987Z,13.20
2019-04-25T02:07:27.787Z,13.20
2019-04-25T02:09:57.361Z,13.20
2019-04-25T02:12:38.345Z,13.20
2019-04-25T02:15:07.723Z,13.20
2019-04-25T02:17:37.093Z,13.10
2019-04-25T02:20:06.430Z,13.10
2019-04-25T02:22:35.801Z,13.10
2019-04-25T02:25:05.286Z,13.10
2019-04-25T02:27:34.605Z,13.00
2019-04-25T02:30:06.759Z,13.00
2019-04-25T02:32:37.216Z,13.00
2019-04-25T02:35:09.518Z,13.00
2019-04-25T02:37:37.367Z,13.00
2019-04-25T02:40:08.461Z,13.00
2019-04-25T02:42:38.317Z,13.00
2019-04-25T02:45:27.758Z,13.00
2019-04-25T02:48:27.994Z,13.00
2019-04-25T02:51:05.462Z,13.00
2019-04-25T02:53:38.924Z,13.00
2019-04-25T02:56:26.127Z,12.90
2019-04-25T02:58:39.366Z,12.80
2019-04-25T03:01:17.903Z,12.70
2019-04-25T03:03:41.809Z,12.60
2019-04-25T03:06:11.104Z,12.50
2019-04-25T03:08:40.640Z,12.50
2019-04-25T03:11:10.025Z,12.40
2019-04-25T03:13:39.542Z,12.50
2019-04-25T03:16:10.903Z,12.50
2019-04-25T03:19:10.913Z,12.50
2019-04-25T03:21:41.281Z,12.40
2019-04-25T03:24:15.932Z,12.40
2019-04-25T03:26:41.616Z,12.40
2019-04-25T03:29:10.942Z,12.40
2019-04-25T03:31:40.249Z,12.40
2019-04-25T03:34:14.038Z,12.30
2019-04-25T03:36:40.659Z,12.30
2019-04-25T03:39:09.962Z,12.30
2019-04-25T03:41:39.255Z,12.30
2019-04-25T03:44:08.614Z,12.30
2019-04-25T03:46:37.915Z,12.30
2019-04-25T03:49:07.643Z,12.30
2019-04-25T03:51:37.256Z,12.20
2019-04-25T03:54:07.523Z,12.20
2019-04-25T03:56:37.674Z,12.20
2019-04-25T03:59:07.226Z,12.20
2019-04-25T04:01:36.898Z,12.20
2019-04-25T04:04:07.075Z,12.20
2019-04-25T04:06:37.321Z,12.20
2019-04-25T04:09:07.972Z,12.10
2019-04-25T04:11:37.518Z,12.20
2019-04-25T04:14:07.081Z,12.20
2019-04-25T04:16:39.540Z,12.20
2019-04-25T04:19:08.911Z,12.20
2019-04-25T04:21:50.550Z,12.20
2019-04-25T04:24:25.793Z,12.20
2019-04-25T04:27:09.141Z,12.20
2019-04-25T04:29:39.491Z,12.20
2019-04-25T04:32:08.787Z,12.20
2019-04-25T04:34:38.180Z,12.20
2019-04-25T04:37:07.618Z,12.20
2019-04-25T04:39:37.246Z,12.30
2019-04-25T04:42:07.543Z,12.30
2019-04-25T04:44:37.700Z,12.30
2019-04-25T04:47:08.433Z,12.40
2019-04-25T04:49:38.238Z,12.40
2019-04-25T04:52:08.296Z,12.50
2019-04-25T04:54:38.598Z,12.60
2019-04-25T04:57:18.493Z,13.00
2019-04-25T04:59:39.393Z,13.60
2019-04-25T05:02:19.596Z,14.20
2019-04-25T05:05:17.182Z,14.80
2019-04-25T05:07:55.823Z,15.10
2019-04-25T05:10:25.193Z,15.20
2019-04-25T05:12:54.724Z,15.20
2019-04-25T05:15:24.743Z,15.20
2019-04-25T05:17:54.667Z,15.30
2019-04-25T05:20:24.310Z,15.30
2019-04-25T05:22:54.940Z,15.30
2019-04-25T05:25:24.932Z,15.30
2019-04-25T05:28:00.796Z,15.30
2019-04-25T05:30:33.567Z,15.30
2019-04-25T05:33:03.972Z,15.30
2019-04-25T05:35:33.407Z,15.30
2019-04-25T05:38:03.421Z,15.30
2019-04-25T05:40:34.452Z,15.30
2019-04-25T05:43:10.011Z,15.30
2019-04-25T05:45:39.282Z,15.30
2019-04-25T05:48:09.171Z,15.30
2019-04-25T05:50:38.522Z,15.30
2019-04-25T05:53:09.032Z,15.30
2019-04-25T05:55:38.336Z,15.30
2019-04-25T05:58:07.650Z,15.40
2019-04-25T06:00:36.958Z,15.40
2019-04-25T06:03:06.248Z,15.40
2019-04-25T06:05:35.609Z,15.40
2019-04-25T06:08:04.930Z,15.50
2019-04-25T06:10:53.820Z,15.60
2019-04-25T06:13:51.058Z,15.60
2019-04-25T06:16:39.310Z,15.70
2019-04-25T06:19:26.480Z,15.70
2019-04-25T06:21:56.756Z,15.80
2019-04-25T06:24:32.795Z,15.90
2019-04-25T06:27:25.872Z,15.90
2019-04-25T06:30:17.694Z,16.00
2019-04-25T06:32:47.037Z,16.10
2019-04-25T06:35:16.351Z,16.20
2019-04-25T06:37:45.704Z,16.20
2019-04-25T06:40:15.945Z,16.30
2019-04-25T06:42:46.708Z,16.30
2019-04-25T06:45:44.164Z,16.30
2019-04-25T06:48:36.739Z,16.20
2019-04-25T06:51:06.201Z,16.20
2019-04-25T06:53:35.508Z,16.20
2019-04-25T06:56:06.280Z,16.20
2019-04-25T06:58:35.679Z,16.20
2019-04-25T07:01:05.020Z,16.20
2019-04-25T07:03:35.632Z,16.20
2019-04-25T07:06:05.587Z,16.20
2019-04-25T07:08:35.338Z,16.10
2019-04-25T07:11:04.860Z,16.10
2019-04-25T07:13:38.300Z,16.00
2019-04-25T07:16:05.286Z,15.90
2019-04-25T07:18:37.020Z,15.80
2019-04-25T07:21:05.648Z,15.60
2019-04-25T07:23:35.771Z,15.50
2019-04-25T07:26:13.456Z,15.30
2019-04-25T07:28:57.616Z,15.20
2019-04-25T07:31:58.096Z,15.30
2019-04-25T07:34:27.628Z,15.30
2019-04-25T07:36:56.915Z,15.20
2019-04-25T07:39:26.242Z,15.30
2019-04-25T07:41:55.543Z,15.30
2019-04-25T07:44:39.494Z,15.30
2019-04-25T07:46:55.992Z,15.30
2019-04-25T07:49:26.622Z,15.30
2019-04-25T07:51:56.382Z,15.30
2019-04-25T07:54:27.537Z,15.20
2019-04-25T07:56:57.770Z,15.20
2019-04-25T07:59:27.777Z,15.30
2019-04-25T08:01:57.597Z,15.20
2019-04-25T08:04:27.613Z,15.30
2019-04-25T08:06:57.084Z,15.20
2019-04-25T08:09:27.381Z,15.10
2019-04-25T08:11:57.389Z,15.00
2019-04-25T08:14:34.184Z,15.10
2019-04-25T08:17:05.389Z,15.10
2019-04-25T08:19:35.570Z,15.10
2019-04-25T08:22:05.334Z,15.10
2019-04-25T08:24:37.101Z,15.10
2019-04-25T08:27:06.942Z,15.20
2019-04-25T08:29:38.053Z,15.30
2019-04-25T08:32:07.380Z,15.30
2019-04-25T08:34:37.320Z,15.20
2019-04-25T08:37:17.468Z,15.20
2019-04-25T08:39:38.770Z,15.10
2019-04-25T08:42:08.882Z,15.20
2019-04-25T08:44:39.160Z,15.20
2019-04-25T08:47:08.625Z,15.20
2019-04-25T08:50:03.663Z,15.30
2019-04-25T08:52:35.173Z,15.30
2019-04-25T08:55:14.235Z,15.20
2019-04-25T08:58:03.761Z,15.10
2019-04-25T09:01:04.986Z,15.10
2019-04-25T09:03:42.191Z,15.20
2019-04-25T09:06:13.600Z,15.30
2019-04-25T09:08:45.372Z,15.40
2019-04-25T09:11:14.128Z,15.50
2019-04-25T09:13:44.947Z,15.60
2019-04-25T09:16:15.526Z,15.70
2019-04-25T09:18:45.605Z,15.80
2019-04-25T09:21:15.760Z,15.80
2019-04-25T09:23:45.114Z,15.80
2019-04-25T09:26:14.493Z,15.90
2019-04-25T09:28:45.508Z,15.90
2019-04-25T09:31:14.842Z,16.00
2019-04-25T09:33:45.797Z,16.00
2019-04-25T09:36:15.222Z,16.00
2019-04-25T09:38:47.983Z,16.10
2019-04-25T09:41:15.624Z,16.10
2019-04-25T09:43:46.020Z,16.20
2019-04-25T09:46:21.502Z,16.30
2019-04-25T09:49:04.147Z,16.40
2019-04-25T09:51:55.941Z,16.50
2019-04-25T09:54:45.123Z,16.50
2019-04-25T09:57:43.341Z,16.60
2019-04-25T10:00:30.272Z,16.60
2019-04-25T10:02:59.828Z,16.70
2019-04-25T10:05:29.184Z,16.60
2019-04-25T10:07:58.573Z,16.60
2019-04-25T10:10:28.204Z,16.50
2019-04-25T10:12:57.542Z,16.40
2019-04-25T10:15:54.578Z,16.40
2019-04-25T10:18:24.139Z,16.50
2019-04-25T10:20:54.229Z,16.50
2019-04-25T10:23:24.108Z,16.60
2019-04-25T10:25:53.889Z,16.50
2019-04-25T10:28:23.644Z,16.50
2019-04-25T10:30:53.070Z,16.50
2019-04-25T10:33:26.460Z,16.50
2019-04-25T10:35:59.484Z,16.60
2019-04-25T10:38:28.624Z,16.60
2019-04-25T10:40:58.367Z,16.70
2019-04-25T10:43:27.826Z,16.70
2019-04-25T10:45:57.248Z,16.80
2019-04-25T10:48:26.622Z,16.90
2019-04-25T10:50:56.025Z,16.80
2019-04-25T10:53:25.434Z,16.80
2019-04-25T10:55:54.735Z,16.70
2019-04-25T10:58:24.033Z,16.70
2019-04-25T11:00:54.073Z,16.70
2019-04-25T11:03:48.415Z,16.70
2019-04-25T11:06:23.323Z,16.60
2019-04-25T11:08:55.440Z,16.60
2019-04-25T11:11:24.182Z,16.70
2019-04-25T11:13:57.507Z,16.80
2019-04-25T11:16:26.878Z,16.70
2019-04-25T11:18:56.621Z,16.70
2019-04-25T11:21:26.024Z,16.60
2019-04-25T11:23:55.586Z,16.60
2019-04-25T11:26:25.968Z,16.60
2019-04-25T11:28:55.316Z,16.60
2019-04-25T11:31:29.234Z,16.50
2019-04-25T11:33:58.576Z,16.50
2019-04-25T11:36:28.160Z,16.50
2019-04-25T11:39:34.696Z,16.40
2019-04-25T11:42:09.726Z,16.40
2019-04-25T11:44:39.272Z,16.40
2019-04-25T11:47:08.805Z,16.40
2019-04-25T11:49:38.628Z,16.40
2019-04-25T11:52:08.973Z,16.40
2019-04-25T11:54:38.416Z,16.30
2019-04-25T11:57:07.775Z,16.30
2019-04-25T11:59:38.266Z,16.20
2019-04-25T12:02:10.537Z,16.20
2019-04-25T12:04:39.845Z,16.20
2019-04-25T12:07:09.600Z,16.20
2019-04-25T12:09:39.058Z,16.30
2019-04-25T12:12:08.410Z,16.30
2019-04-25T12:14:37.724Z,16.40
2019-04-25T12:17:07.004Z,16.40
2019-04-25T12:19:37.994Z,16.40
2019-04-25T12:22:07.440Z,16.50
2019-04-25T12:24:36.763Z,16.60
2019-04-25T12:27:06.034Z,16.60
2019-04-25T12:29:35.320Z,16.60
2019-04-25T12:32:05.233Z,16.60
2019-04-25T12:34:34.606Z,16.70
2019-04-25T12:37:04.045Z,16.80
2019-04-25T12:39:34.158Z,16.80
2019-04-25T12:42:04.423Z,16.90
2019-04-25T12:44:54.644Z,16.90
2019-04-25T12:47:25.736Z,16.90
2019-04-25T12:49:56.049Z,16.90
2019-04-25T12:52:25.699Z,16.80
2019-04-25T12:54:57.083Z,16.90
2019-04-25T12:57:26.601Z,16.90
2019-04-25T12:59:55.908Z,16.90
2019-04-25T13:02:25.325Z,17.00
2019-04-25T13:04:55.521Z,17.00
2019-04-25T13:07:25.135Z,17.00
2019-04-25T13:09:55.345Z,17.10
2019-04-25T13:12:25.044Z,17.20
2019-04-25T13:14:54.369Z,17.20
2019-04-25T13:17:24.177Z,17.20
2019-04-25T13:19:54.401Z,17.20
2019-04-25T13:22:24.100Z,17.20
2019-04-25T13:24:53.525Z,17.10
2019-04-25T13:27:44.628Z,17.10
2019-04-25T13:30:24.160Z,17.10
2019-04-25T13:33:08.570Z,17.00
2019-04-25T13:35:44.765Z,16.90
2019-04-25T13:38:14.972Z,16.90
2019-04-25T13:40:44.528Z,17.00
2019-04-25T13:43:13.848Z,17.00
2019-04-25T13:45:43.133Z,17.10
2019-04-25T13:48:13.222Z,17.10
2019-04-25T13:50:44.345Z,17.20
2019-04-25T13:53:13.747Z,17.20
2019-04-25T13:55:43.184Z,17.20
2019-04-25T13:58:14.344Z,17.20
2019-04-25T14:00:44.463Z,17.20
2019-04-25T14:03:13.794Z,17.30
2019-04-25T14:05:43.908Z,17.30
2019-04-25T14:08:14.893Z,17.40
2019-04-25T14:10:44.423Z,17.40
2019-04-25T14:13:13.953Z,17.50
2019-04-25T14:15:48.705Z,17.50
2019-04-25T14:18:35.606Z,17.40
2019-04-25T14:21:24.901Z,17.50
2019-04-25T14:23:54.920Z,17.40
2019-04-25T14:26:25.046Z,17.40
2019-04-25T14:28:54.508Z,17.30
2019-04-25T14:31:39.336Z,17.30
2019-04-25T14:33:56.244Z,17.40
2019-04-25T14:36:26.451Z,17.50
2019-04-25T14:38:56.562Z,17.40
2019-04-25T14:41:26.097Z,17.50
2019-04-25T14:43:55.585Z,17.60
2019-04-25T14:46:26.367Z,17.60
2019-04-25T14:48:56.086Z,17.50
2019-04-25T14:51:26.137Z,17.50
2019-04-25T14:53:56.622Z,17.50
2019-04-25T14:56:34.521Z,17.50
2019-04-25T14:59:04.415Z,17.40
2019-04-25T15:01:44.065Z,17.40
2019-04-25T15:04:04.849Z,17.40
2019-04-25T15:06:34.248Z,17.40
2019-04-25T15:09:03.658Z,17.30
2019-04-25T15:11:33.576Z,17.30
2019-04-25T15:14:03.140Z,17.20
2019-04-25T15:16:33.380Z,17.20
2019-04-25T15:19:03.069Z,17.20
2019-04-25T15:21:32.353Z,17.20
2019-04-25T15:24:01.705Z,17.20
2019-04-25T15:26:31.189Z,17.20
2019-04-25T15:29:00.545Z,17.10
2019-04-25T15:31:30.297Z,17.00
2019-04-25T15:34:02.265Z,16.90
2019-04-25T15:36:46.144Z,16.80
2019-04-25T15:39:43.402Z,16.80
2019-04-25T15:42:34.712Z,16.80
2019-04-25T15:45:23.292Z,16.80
2019-04-25T15:47:53.240Z,16.70
2019-04-25T15:50:22.562Z,16.70
2019-04-25T15:52:52.464Z,16.60
2019-04-25T15:55:21.797Z,16.60
2019-04-25T15:57:51.133Z,16.60
2019-04-25T16:00:26.990Z,16.70
2019-04-25T16:02:56.410Z,16.70
2019-04-25T16:05:26.618Z,16.80
2019-04-25T16:07:56.161Z,16.80
2019-04-25T16:10:25.620Z,16.90
2019-04-25T16:12:54.923Z,16.90
2019-04-25T16:15:24.200Z,16.90
2019-04-25T16:17:53.523Z,16.90
2019-04-25T16:20:22.846Z,17.00
2019-04-25T16:22:52.226Z,17.00
2019-04-25T16:25:21.597Z,17.00
2019-04-25T16:27:50.903Z,17.00
2019-04-25T16:30:22.508Z,17.00
2019-04-25T16:32:51.853Z,17.00
2019-04-25T16:35:21.216Z,17.00
2019-04-25T16:37:50.524Z,16.90
2019-04-25T16:40:19.863Z,16.90
2019-04-25T16:42:49.395Z,16.90
2019-04-25T16:45:18.710Z,16.80
2019-04-25T16:47:48.011Z,16.80
2019-04-25T16:50:19.000Z,16.80
2019-04-25T16:52:48.334Z,16.80
2019-04-25T16:55:18.227Z,16.80
2019-04-25T16:57:47.588Z,16.80
2019-04-25T17:00:55.000Z,16.80
2019-04-25T17:03:27.065Z,16.80
2019-04-25T17:05:56.521Z,16.80
2019-04-25T17:08:25.969Z,16.70
2019-04-25T17:10:55.287Z,16.70
2019-04-25T17:13:26.305Z,16.70
2019-04-25T17:16:07.295Z,16.70
2019-04-25T17:18:58.405Z,16.60
2019-04-25T17:21:28.368Z,16.60
2019-04-25T17:23:57.783Z,16.60
2019-04-25T17:26:27.109Z,16.50
2019-04-25T17:28:58.767Z,16.40
2019-04-25T17:31:38.924Z,16.40
2019-04-25T17:34:16.619Z,16.30
2019-04-25T17:36:55.498Z,16.20
2019-04-25T17:39:43.752Z,16.20
2019-04-25T17:42:13.071Z,16.20
2019-04-25T17:44:42.594Z,16.20
2019-04-25T17:47:12.176Z,16.20
2019-04-25T17:49:42.324Z,16.10
2019-04-25T17:52:12.077Z,16.10
2019-04-25T17:54:41.403Z,16.10
2019-04-25T17:57:10.702Z,16.00
2019-04-25T17:59:40.040Z,16.00
2019-04-25T18:02:09.427Z,16.00
2019-04-25T18:04:38.787Z,16.10
2019-04-25T18:07:08.547Z,16.10
2019-04-25T18:09:38.679Z,16.10
2019-04-25T18:12:08.202Z,16.10
2019-04-25T18:14:38.456Z,16.10
2019-04-25T18:17:27.169Z,16.10
2019-04-25T18:20:01.689Z,16.10
2019-04-25T18:22:58.926Z,16.00
2019-04-25T18:25:59.430Z,16.00
2019-04-25T18:28:39.473Z,16.00
2019-04-25T18:31:09.564Z,16.00
2019-04-25T18:33:39.331Z,15.90
2019-04-25T18:36:24.490Z,15.90
2019-04-25T18:39:12.754Z,15.90
2019-04-25T18:41:46.999Z,15.90
2019-04-25T18:44:16.343Z,16.00
2019-04-25T18:46:47.239Z,16.00
2019-04-25T18:49:16.786Z,16.00
2019-04-25T18:51:56.445Z,16.00
2019-04-25T18:54:41.997Z,16.00
2019-04-25T18:57:21.973Z,16.00
2019-04-25T19:00:00.132Z,16.00
2019-04-25T19:02:59.674Z,16.00
2019-04-25T19:05:56.928Z,16.00
2019-04-25T19:08:26.312Z,15.90
2019-04-25T19:10:55.697Z,15.90
2019-04-25T19:13:25.088Z,15.80
2019-04-25T19:15:54.421Z,15.80
2019-04-25T19:18:23.755Z,15.70
2019-04-25T19:20:53.208Z,15.70
2019-04-25T19:23:22.507Z,15.70
2019-04-25T19:25:52.155Z,15.70
2019-04-25T19:28:21.913Z,15.60
2019-04-25T19:30:51.429Z,15.60
2019-04-25T19:33:34.762Z,15.60
2019-04-25T19:35:53.700Z,15.50
2019-04-25T19:38:23.226Z,15.50
2019-04-25T19:41:08.152Z,15.50
2019-04-25T19:43:53.780Z,15.50
2019-04-25T19:46:37.409Z,15.40
2019-04-25T19:49:07.206Z,15.40
2019-04-25T19:51:36.543Z,15.30
2019-04-25T19:54:06.986Z,15.30
2019-04-25T19:56:36.398Z,15.30
2019-04-25T19:59:06.143Z,15.30
2019-04-25T20:01:35.497Z,15.20
2019-04-25T20:04:29.771Z,15.30
2019-04-25T20:07:37.255Z,15.30
2019-04-25T20:10:24.763Z,15.20
2019-04-25T20:12:55.019Z,15.20
2019-04-25T20:15:24.408Z,15.20
2019-04-25T20:17:54.225Z,15.20
2019-04-25T20:20:23.981Z,15.10
2019-04-25T20:22:54.376Z,15.20
2019-04-25T20:25:24.097Z,15.20
2019-04-25T20:27:53.381Z,15.10
2019-04-25T20:30:23.660Z,15.10
2019-04-25T20:32:53.628Z,15.10
2019-04-25T20:35:23.172Z,15.00
2019-04-25T20:37:53.392Z,15.00
2019-04-25T20:40:22.932Z,15.00
2019-04-25T20:42:52.262Z,15.00
2019-04-25T20:45:21.920Z,15.00
2019-04-25T20:47:52.071Z,15.00
2019-04-25T20:50:21.761Z,15.00
2019-04-25T20:52:51.178Z,14.90
2019-04-25T20:55:20.568Z,14.90
2019-04-25T20:57:49.861Z,14.90
2019-04-25T21:00:40.173Z,14.90
2019-04-25T21:03:10.060Z,14.80
2019-04-25T21:05:39.439Z,14.80
2019-04-25T21:08:08.784Z,14.80
2019-04-25T21:10:38.151Z,14.80
2019-04-25T21:13:10.614Z,14.80
2019-04-25T21:16:02.628Z,14.80
2019-04-25T21:18:47.697Z,14.70
2019-04-25T21:21:17.088Z,14.70
2019-04-25T21:23:46.468Z,14.70
2019-04-25T21:26:15.814Z,14.70
2019-04-25T21:28:45.282Z,14.60
2019-04-25T21:31:14.650Z,14.60
2019-04-25T21:33:44.043Z,14.60
2019-04-25T21:36:13.626Z,14.50
2019-04-25T21:38:43.241Z,14.60
2019-04-25T21:41:34.995Z,14.50
2019-04-25T21:44:05.940Z,14.50
2019-04-25T21:46:35.691Z,14.50
2019-04-25T21:49:05.586Z,14.50
2019-04-25T21:51:34.919Z,14.50
2019-04-25T21:54:04.592Z,14.50
2019-04-25T21:56:34.490Z,14.40
2019-04-25T21:59:04.141Z,14.40
2019-04-25T22:01:37.177Z,14.40
2019-04-25T22:04:06.632Z,14.40
2019-04-25T22:06:36.522Z,14.40
2019-04-25T22:09:10.364Z,14.40
2019-04-25T22:11:39.742Z,14.30
2019-04-25T22:14:10.013Z,14.40
2019-04-25T22:16:39.916Z,14.30
2019-04-25T22:19:11.100Z,14.30
2019-04-25T22:21:40.618Z,14.30
2019-04-25T22:24:14.241Z,14.20
2019-04-25T22:26:41.948Z,14.20
2019-04-25T22:29:11.695Z,14.20
2019-04-25T22:31:49.022Z,14.30
2019-04-25T22:34:30.210Z,14.30
2019-04-25T22:36:59.897Z,14.30
2019-04-25T22:39:29.461Z,14.40
2019-04-25T22:41:59.542Z,14.40
2019-04-25T22:44:30.098Z,14.50
2019-04-25T22:47:00.825Z,14.60
2019-04-25T22:49:30.224Z,14.50
2019-04-25T22:52:00.575Z,14.60
2019-04-25T22:54:31.047Z,14.60
2019-04-25T22:57:01.781Z,14.60
2019-04-25T22:59:31.439Z,14.60
2019-04-25T23:02:18.558Z,14.60
2019-04-25T23:05:12.923Z,14.60
2019-04-25T23:07:39.409Z,14.60
2019-04-25T23:10:10.321Z,14.60
2019-04-25T23:12:40.092Z,14.60
2019-04-25T23:15:09.496Z,14.60
2019-04-25T23:17:38.892Z,14.60
2019-04-25T23:20:09.586Z,14.60
2019-04-25T23:22:39.173Z,14.60
2019-04-25T23:25:11.916Z,14.60
2019-04-25T23:28:03.620Z,14.60
2019-04-25T23:30:38.756Z,14.60
2019-04-25T23:33:08.507Z,14.60
2019-04-25T23:35:38.944Z,14.60
2019-04-25T23:38:10.808Z,14.60
2019-04-25T23:40:39.745Z,14.60
2019-04-25T23:43:09.590Z,14.60
2019-04-25T23:45:38.996Z,14.60
2019-04-25T23:48:08.706Z,14.60
2019-04-25T23:50:38.021Z,14.60
2019-04-25T23:53:08.075Z,14.60
2019-04-25T23:55:38.339Z,14.60
2019-04-25T23:58:08.690Z,14.60
